Terminal Aerodrome Forecast
Issued by NWS

Home | Current Version | Previous Version | Text Only | Print | Product List | Glossary On
Versions: 1 2 3 4 5 6 7 8 9 10 11 12 13 14 15 16 17 18 19 20 21 22 23
016
FTUS43 KDLH 271918 AAA
TAFHIB
TAF AMD
KHIB 271918Z 2719/2818 34013KT P6SM -RA SCT015 OVC050
     FM272100 34012KT P6SM -RA OVC015
     FM280100 35010KT P6SM SCT007 OVC010
     FM280400 36008KT 4SM BR FEW004 OVC007
     FM281400 02008KT P6SM BKN012
     FM281700 02008KT P6SM SCT015=

USA.gov is the U.S. government's official web portal to all federal, state and local government web resources and services.